sensor_id;sensor_type;location;lat;lon;timestamp;pressure;altitude;pressure_sealevel;temperature;humidity
81224;BME280;70698;44.402;18.522;2024-01-11T00:00:15;98723.75;;;-4.45;90.32
81224;BME280;70698;44.402;18.522;2024-01-11T00:02:41;98696.91;;;-4.61;90.78
81224;BME280;70698;44.402;18.522;2024-01-11T00:05:07;98715.56;;;-4.56;90.43
81224;BME280;70698;44.402;18.522;2024-01-11T00:07:33;98718.59;;;-4.69;90.63
81224;BME280;70698;44.402;18.522;2024-01-11T00:09:58;98709.22;;;-4.70;91.16
81224;BME280;70698;44.402;18.522;2024-01-11T00:12:25;98715.13;;;-4.68;91.64
81224;BME280;70698;44.402;18.522;2024-01-11T00:14:51;98708.47;;;-4.74;91.36
81224;BME280;70698;44.402;18.522;2024-01-11T00:17:16;98711.03;;;-4.74;91.75
81224;BME280;70698;44.402;18.522;2024-01-11T00:19:42;98713.38;;;-4.68;91.44
81224;BME280;70698;44.402;18.522;2024-01-11T00:22:08;98705.97;;;-4.51;92.04
81224;BME280;70698;44.402;18.522;2024-01-11T00:24:33;98706.25;;;-4.58;90.89
81224;BME280;70698;44.402;18.522;2024-01-11T00:26:59;98702.59;;;-4.78;91.81
81224;BME280;70698;44.402;18.522;2024-01-11T00:29:24;98693.66;;;-4.66;91.66
81224;BME280;70698;44.402;18.522;2024-01-11T00:31:50;98706.03;;;-4.52;91.16
81224;BME280;70698;44.402;18.522;2024-01-11T00:34:16;98703.38;;;-4.75;90.85
81224;BME280;70698;44.402;18.522;2024-01-11T00:36:41;98715.13;;;-4.68;91.48
81224;BME280;70698;44.402;18.522;2024-01-11T00:39:07;98710.09;;;-4.71;91.49
81224;BME280;70698;44.402;18.522;2024-01-11T00:41:32;98694.50;;;-4.65;91.99
81224;BME280;70698;44.402;18.522;2024-01-11T00:43:58;98710.75;;;-4.65;91.94
81224;BME280;70698;44.402;18.522;2024-01-11T00:46:24;98699.28;;;-4.81;91.30
81224;BME280;70698;44.402;18.522;2024-01-11T00:48:49;98704.97;;;-4.71;91.15
81224;BME280;70698;44.402;18.522;2024-01-11T00:51:15;98710.06;;;-4.70;91.18
81224;BME280;70698;44.402;18.522;2024-01-11T00:53:41;98706.13;;;-4.55;90.12
81224;BME280;70698;44.402;18.522;2024-01-11T00:56:18;98697.94;;;-4.66;89.44
81224;BME280;70698;44.402;18.522;2024-01-11T00:58:43;98699.16;;;-4.77;90.57
81224;BME280;70698;44.402;18.522;2024-01-11T01:01:09;98700.97;;;-4.80;90.90
81224;BME280;70698;44.402;18.522;2024-01-11T01:03:35;98683.19;;;-4.85;90.93
81224;BME280;70698;44.402;18.522;2024-01-11T01:06:01;98702.34;;;-4.96;90.58
81224;BME280;70698;44.402;18.522;2024-01-11T01:08:28;98703.53;;;-5.06;91.46
81224;BME280;70698;44.402;18.522;2024-01-11T01:10:53;98690.19;;;-4.90;91.49
81224;BME280;70698;44.402;18.522;2024-01-11T01:13:19;98699.63;;;-4.92;91.17
81224;BME280;70698;44.402;18.522;2024-01-11T01:15:44;98683.13;;;-5.09;91.12
81224;BME280;70698;44.402;18.522;2024-01-11T01:18:10;98704.53;;;-4.84;91.80
81224;BME280;70698;44.402;18.522;2024-01-11T01:20:36;98697.88;;;-4.90;91.37
81224;BME280;70698;44.402;18.522;2024-01-11T01:23:02;98703.19;;;-4.96;92.25
81224;BME280;70698;44.402;18.522;2024-01-11T01:25:28;98701.22;;;-4.88;93.48
81224;BME280;70698;44.402;18.522;2024-01-11T01:27:53;98710.44;;;-4.82;93.73
81224;BME280;70698;44.402;18.522;2024-01-11T01:30:19;98710.50;;;-4.84;92.75
81224;BME280;70698;44.402;18.522;2024-01-11T01:32:45;98714.69;;;-4.81;92.77
81224;BME280;70698;44.402;18.522;2024-01-11T01:35:11;98704.47;;;-4.83;92.96
81224;BME280;70698;44.402;18.522;2024-01-11T01:37:36;98707.81;;;-4.54;92.71
81224;BME280;70698;44.402;18.522;2024-01-11T01:40:02;98697.94;;;-4.66;91.15
81224;BME280;70698;44.402;18.522;2024-01-11T01:42:28;98706.75;;;-4.73;90.87
81224;BME280;70698;44.402;18.522;2024-01-11T01:44:54;98712.47;;;-4.65;91.90
81224;BME280;70698;44.402;18.522;2024-01-11T01:47:19;98711.78;;;-4.70;91.53
81224;BME280;70698;44.402;18.522;2024-01-11T01:49:47;98715.03;;;-4.65;91.67
81224;BME280;70698;44.402;18.522;2024-01-11T01:52:14;98708.47;;;-4.74;92.18
81224;BME280;70698;44.402;18.522;2024-01-11T01:54:40;98706.81;;;-4.50;91.83
81224;BME280;70698;44.402;18.522;2024-01-11T01:57:07;98711.00;;;-4.48;90.35
81224;BME280;70698;44.402;18.522;2024-01-11T01:59:36;98709.78;;;-4.62;90.53
81224;BME280;70698;44.402;18.522;2024-01-11T02:02:04;98702.59;;;-4.78;90.83
81224;BME280;70698;44.402;18.522;2024-01-11T02:04:30;98691.78;;;-4.87;91.42
81224;BME280;70698;44.402;18.522;2024-01-11T02:06:56;98694.16;;;-4.81;91.81
81224;BME280;70698;44.402;18.522;2024-01-11T02:09:24;98693.94;;;-5.00;92.71
81224;BME280;70698;44.402;18.522;2024-01-11T02:11:52;98688.75;;;-4.98;93.42
81224;BME280;70698;44.402;18.522;2024-01-11T02:14:19;98684.56;;;-5.01;94.16
81224;BME280;70698;44.402;18.522;2024-01-11T02:16:45;98683.75;;;-5.03;94.69
81224;BME280;70698;44.402;18.522;2024-01-11T02:19:14;98684.38;;;-4.95;94.47
81224;BME280;70698;44.402;18.522;2024-01-11T02:21:42;98688.25;;;-4.83;93.63
81224;BME280;70698;44.402;18.522;2024-01-11T02:24:09;98686.00;;;-5.18;93.24
81224;BME280;70698;44.402;18.522;2024-01-11T02:26:35;98679.72;;;-5.38;94.96
81224;BME280;70698;44.402;18.522;2024-01-11T02:29:01;98684.28;;;-5.18;95.29
81224;BME280;70698;44.402;18.522;2024-01-11T02:31:27;98676.53;;;-5.44;95.31
81224;BME280;70698;44.402;18.522;2024-01-11T02:33:54;98682.09;;;-5.58;96.41
81224;BME280;70698;44.402;18.522;2024-01-11T02:36:23;98685.38;;;-5.54;96.74
81224;BME280;70698;44.402;18.522;2024-01-11T02:38:50;98678.06;;;-5.67;96.69
81224;BME280;70698;44.402;18.522;2024-01-11T02:41:18;98672.19;;;-5.70;97.11
81224;BME280;70698;44.402;18.522;2024-01-11T02:43:47;98661.47;;;-5.53;97.86
81224;BME280;70698;44.402;18.522;2024-01-11T02:46:15;98673.34;;;-5.52;97.06
81224;BME280;70698;44.402;18.522;2024-01-11T02:48:41;98660.41;;;-5.76;95.75
81224;BME280;70698;44.402;18.522;2024-01-11T02:51:06;98665.22;;;-5.65;96.88
81224;BME280;70698;44.402;18.522;2024-01-11T02:53:32;98671.00;;;-5.58;97.60
81224;BME280;70698;44.402;18.522;2024-01-11T02:56:01;98675.94;;;-5.82;96.79
81224;BME280;70698;44.402;18.522;2024-01-11T02:58:26;98666.09;;;-5.94;96.89
81224;BME280;70698;44.402;18.522;2024-01-11T03:00:52;98666.56;;;-6.11;98.07
81224;BME280;70698;44.402;18.522;2024-01-11T03:03:17;98658.72;;;-6.34;98.89
81224;BME280;70698;44.402;18.522;2024-01-11T03:05:43;98659.00;;;-6.44;99.87
81224;BME280;70698;44.402;18.522;2024-01-11T03:08:09;98644.22;;;-6.66;100.00
81224;BME280;70698;44.402;18.522;2024-01-11T03:10:37;98647.66;;;-6.67;100.00
81224;BME280;70698;44.402;18.522;2024-01-11T03:13:04;98649.97;;;-6.27;100.00
81224;BME280;70698;44.402;18.522;2024-01-11T03:15:30;98646.09;;;-6.11;100.00
81224;BME280;70698;44.402;18.522;2024-01-11T03:17:56;98645.50;;;-6.19;100.00
81224;BME280;70698;44.402;18.522;2024-01-11T03:20:21;98645.69;;;-6.26;100.00
81224;BME280;70698;44.402;18.522;2024-01-11T03:22:50;98646.28;;;-6.17;100.00
81224;BME280;70698;44.402;18.522;2024-01-11T03:25:17;98646.69;;;-6.32;100.00
81224;BME280;70698;44.402;18.522;2024-01-11T03:27:42;98649.34;;;-6.35;100.00
81224;BME280;70698;44.402;18.522;2024-01-11T03:30:08;98639.50;;;-6.48;100.00
81224;BME280;70698;44.402;18.522;2024-01-11T03:32:34;98653.03;;;-6.45;100.00
81224;BME280;70698;44.402;18.522;2024-01-11T03:34:59;98648.19;;;-6.54;100.00
81224;BME280;70698;44.402;18.522;2024-01-11T03:37:25;98645.81;;;-6.62;100.00
81224;BME280;70698;44.402;18.522;2024-01-11T03:39:51;98642.38;;;-6.61;100.00
81224;BME280;70698;44.402;18.522;2024-01-11T03:42:16;98644.63;;;-6.48;100.00
81224;BME280;70698;44.402;18.522;2024-01-11T03:44:42;98634.56;;;-6.56;100.00
81224;BME280;70698;44.402;18.522;2024-01-11T03:47:08;98643.94;;;-6.55;100.00
81224;BME280;70698;44.402;18.522;2024-01-11T03:49:33;98642.94;;;-6.49;100.00
81224;BME280;70698;44.402;18.522;2024-01-11T03:51:59;98632.59;;;-6.46;100.00
81224;BME280;70698;44.402;18.522;2024-01-11T03:54:24;98624.19;;;-6.50;100.00
81224;BME280;70698;44.402;18.522;2024-01-11T03:56:50;98636.75;;;-6.42;100.00
81224;BME280;70698;44.402;18.522;2024-01-11T03:59:16;98623.34;;;-6.50;100.00
81224;BME280;70698;44.402;18.522;2024-01-11T04:01:42;98623.94;;;-6.12;100.00
81224;BME280;70698;44.402;18.522;2024-01-11T04:04:08;98629.81;;;-5.80;100.00
81224;BME280;70698;44.402;18.522;2024-01-11T04:06:34;98620.81;;;-5.92;100.00
81224;BME280;70698;44.402;18.522;2024-01-11T04:08:59;98620.38;;;-6.06;99.60
81224;BME280;70698;44.402;18.522;2024-01-11T04:11:28;98639.44;;;-6.16;99.50
81224;BME280;70698;44.402;18.522;2024-01-11T04:13:54;98620.19;;;-6.28;100.00
81224;BME280;70698;44.402;18.522;2024-01-11T04:16:20;98639.28;;;-6.10;100.00
81224;BME280;70698;44.402;18.522;2024-01-11T04:18:46;98632.03;;;-5.96;100.00
81224;BME280;70698;44.402;18.522;2024-01-11T04:21:26;98623.75;;;-6.04;99.34
81224;BME280;70698;44.402;18.522;2024-01-11T04:23:55;98615.38;;;-6.09;99.42
81224;BME280;70698;44.402;18.522;2024-01-11T04:26:21;98625.66;;;-5.83;99.72
81224;BME280;70698;44.402;18.522;2024-01-11T04:28:47;98618.53;;;-5.73;98.49
81224;BME280;70698;44.402;18.522;2024-01-11T04:31:14;98612.56;;;-5.74;97.29
81224;BME280;70698;44.402;18.522;2024-01-11T04:33:40;98620.03;;;-5.68;96.89
81224;BME280;70698;44.402;18.522;2024-01-11T04:36:08;98622.25;;;-5.55;96.72
81224;BME280;70698;44.402;18.522;2024-01-11T04:38:34;98622.66;;;-5.69;95.67
81224;BME280;70698;44.402;18.522;2024-01-11T04:41:00;98617.91;;;-5.81;96.11
81224;BME280;70698;44.402;18.522;2024-01-11T04:43:25;98620.66;;;-5.87;97.39
81224;BME280;70698;44.402;18.522;2024-01-11T04:45:51;98601.94;;;-6.17;97.48
81224;BME280;70698;44.402;18.522;2024-01-11T04:48:17;98598.50;;;-6.45;97.74
81224;BME280;70698;44.402;18.522;2024-01-11T04:50:44;98603.69;;;-6.48;99.06
81224;BME280;70698;44.402;18.522;2024-01-11T04:53:10;98578.91;;;-6.46;99.78
81224;BME280;70698;44.402;18.522;2024-01-11T04:55:35;98603.53;;;-6.13;100.00
81224;BME280;70698;44.402;18.522;2024-01-11T04:58:01;98600.78;;;-6.36;98.99
81224;BME280;70698;44.402;18.522;2024-01-11T05:00:26;98591.41;;;-6.36;99.27
81224;BME280;70698;44.402;18.522;2024-01-11T05:02:52;98599.00;;;-6.33;99.22
81224;BME280;70698;44.402;18.522;2024-01-11T05:05:18;98593.22;;;-6.10;99.49
81224;BME280;70698;44.402;18.522;2024-01-11T05:07:43;98602.38;;;-6.32;98.47
81224;BME280;70698;44.402;18.522;2024-01-11T05:10:09;98601.56;;;-6.33;98.91
81224;BME280;70698;44.402;18.522;2024-01-11T05:12:34;98583.69;;;-6.34;98.68
81224;BME280;70698;44.402;18.522;2024-01-11T05:15:02;98603.59;;;-6.45;98.04
81224;BME280;70698;44.402;18.522;2024-01-11T05:17:28;98594.59;;;-6.59;98.40
81224;BME280;70698;44.402;18.522;2024-01-11T05:19:53;98577.13;;;-6.74;99.02
81224;BME280;70698;44.402;18.522;2024-01-11T05:22:19;98588.81;;;-6.65;99.67
81224;BME280;70698;44.402;18.522;2024-01-11T05:24:45;98581.09;;;-6.64;99.93
81224;BME280;70698;44.402;18.522;2024-01-11T05:27:10;98597.28;;;-6.63;99.75
81224;BME280;70698;44.402;18.522;2024-01-11T05:29:36;98593.44;;;-6.78;99.50
81224;BME280;70698;44.402;18.522;2024-01-11T05:32:01;98596.91;;;-6.82;99.59
81224;BME280;70698;44.402;18.522;2024-01-11T05:34:27;98594.31;;;-6.79;99.77
81224;BME280;70698;44.402;18.522;2024-01-11T05:36:53;98585.81;;;-6.81;100.00
81224;BME280;70698;44.402;18.522;2024-01-11T05:39:18;98591.66;;;-6.76;100.00
81224;BME280;70698;44.402;18.522;2024-01-11T05:41:44;98561.53;;;-6.97;100.00
81224;BME280;70698;44.402;18.522;2024-01-11T05:44:10;98585.69;;;-6.76;100.00
81224;BME280;70698;44.402;18.522;2024-01-11T05:46:36;98574.31;;;-6.97;100.00
81224;BME280;70698;44.402;18.522;2024-01-11T05:49:02;98583.03;;;-7.04;100.00
81224;BME280;70698;44.402;18.522;2024-01-11T05:51:28;98577.31;;;-7.12;99.68
81224;BME280;70698;44.402;18.522;2024-01-11T05:53:53;98581.06;;;-6.93;100.00
81224;BME280;70698;44.402;18.522;2024-01-11T05:56:19;98580.72;;;-6.81;99.91
81224;BME280;70698;44.402;18.522;2024-01-11T05:58:47;98572.44;;;-6.58;99.23
81224;BME280;70698;44.402;18.522;2024-01-11T06:01:13;98574.69;;;-6.47;98.29
81224;BME280;70698;44.402;18.522;2024-01-11T06:03:38;98569.44;;;-6.43;96.54
81224;BME280;70698;44.402;18.522;2024-01-11T06:06:05;98547.88;;;-6.34;95.96
81224;BME280;70698;44.402;18.522;2024-01-11T06:08:30;98569.63;;;-6.49;94.17
81224;BME280;70698;44.402;18.522;2024-01-11T06:10:57;98568.59;;;-6.43;94.30
81224;BME280;70698;44.402;18.522;2024-01-11T06:13:23;98579.75;;;-6.46;94.59
81224;BME280;70698;44.402;18.522;2024-01-11T06:15:48;98585.09;;;-6.54;93.72
81224;BME280;70698;44.402;18.522;2024-01-11T06:18:16;98577.19;;;-6.77;94.15
81224;BME280;70698;44.402;18.522;2024-01-11T06:20:41;98586.56;;;-7.08;93.90
81224;BME280;70698;44.402;18.522;2024-01-11T06:23:08;98563.28;;;-7.31;94.76
81224;BME280;70698;44.402;18.522;2024-01-11T06:25:34;98583.81;;;-7.02;95.87
81224;BME280;70698;44.402;18.522;2024-01-11T06:27:59;98581.94;;;-6.94;95.95
81224;BME280;70698;44.402;18.522;2024-01-11T06:30:25;98583.63;;;-6.94;95.76
81224;BME280;70698;44.402;18.522;2024-01-11T06:32:51;98569.28;;;-6.68;95.31
81224;BME280;70698;44.402;18.522;2024-01-11T06:35:16;98574.22;;;-6.62;94.47
81224;BME280;70698;44.402;18.522;2024-01-11T06:37:42;98580.69;;;-6.48;94.42
81224;BME280;70698;44.402;18.522;2024-01-11T06:40:08;98572.38;;;-6.57;92.99
81224;BME280;70698;44.402;18.522;2024-01-11T06:42:34;98570.66;;;-6.56;93.91
81224;BME280;70698;44.402;18.522;2024-01-11T06:45:00;98573.28;;;-6.58;94.41
81224;BME280;70698;44.402;18.522;2024-01-11T06:47:26;98574.88;;;-6.54;94.37
81224;BME280;70698;44.402;18.522;2024-01-11T06:49:52;98564.78;;;-6.60;93.97
81224;BME280;70698;44.402;18.522;2024-01-11T06:52:18;98586.22;;;-6.64;93.05
81224;BME280;70698;44.402;18.522;2024-01-11T06:54:45;98578.84;;;-6.43;93.97
81224;BME280;70698;44.402;18.522;2024-01-11T06:57:10;98580.50;;;-6.42;93.48
81224;BME280;70698;44.402;18.522;2024-01-11T06:59:36;98571.75;;;-6.65;92.57
81224;BME280;70698;44.402;18.522;2024-01-11T07:02:03;98572.44;;;-6.58;92.64
81224;BME280;70698;44.402;18.522;2024-01-11T07:04:29;98588.16;;;-6.42;91.28
81224;BME280;70698;44.402;18.522;2024-01-11T07:06:54;98585.16;;;-6.27;90.86
81224;BME280;70698;44.402;18.522;2024-01-11T07:09:20;98589.94;;;-6.15;89.57
81224;BME280;70698;44.402;18.522;2024-01-11T07:11:46;98596.47;;;-6.34;89.53
81224;BME280;70698;44.402;18.522;2024-01-11T07:14:11;98582.56;;;-6.26;90.69
81224;BME280;70698;44.402;18.522;2024-01-11T07:16:37;98593.75;;;-5.99;89.57
81224;BME280;70698;44.402;18.522;2024-01-11T07:19:03;98583.16;;;-6.16;88.53
81224;BME280;70698;44.402;18.522;2024-01-11T07:21:28;98591.19;;;-5.99;88.28
81224;BME280;70698;44.402;18.522;2024-01-11T07:23:58;98596.44;;;-5.77;86.95
81224;BME280;70698;44.402;18.522;2024-01-11T07:26:24;98587.75;;;-5.98;86.54
81224;BME280;70698;44.402;18.522;2024-01-11T07:28:50;98590.09;;;-5.92;87.53
81224;BME280;70698;44.402;18.522;2024-01-11T07:31:16;98602.31;;;-6.01;88.25
81224;BME280;70698;44.402;18.522;2024-01-11T07:33:42;98605.03;;;-6.06;89.22
81224;BME280;70698;44.402;18.522;2024-01-11T07:36:07;98604.81;;;-6.28;88.29
81224;BME280;70698;44.402;18.522;2024-01-11T07:38:34;98596.81;;;-6.46;88.35
81224;BME280;70698;44.402;18.522;2024-01-11T07:41:00;98595.25;;;-6.52;88.78
81224;BME280;70698;44.402;18.522;2024-01-11T07:43:27;98604.63;;;-6.22;89.02
81224;BME280;70698;44.402;18.522;2024-01-11T07:45:54;98602.44;;;-6.34;88.04
81224;BME280;70698;44.402;18.522;2024-01-11T07:48:22;98581.66;;;-6.23;89.13
81224;BME280;70698;44.402;18.522;2024-01-11T07:50:48;98602.56;;;-6.09;88.22
81224;BME280;70698;44.402;18.522;2024-01-11T07:53:14;98591.47;;;-6.08;87.60
81224;BME280;70698;44.402;18.522;2024-01-11T07:55:40;98597.38;;;-6.07;86.36
81224;BME280;70698;44.402;18.522;2024-01-11T07:58:06;98592.50;;;-6.15;86.89
81224;BME280;70698;44.402;18.522;2024-01-11T08:00:32;98588.00;;;-6.07;87.46
81224;BME280;70698;44.402;18.522;2024-01-11T08:02:59;98583.22;;;-5.90;87.58
81224;BME280;70698;44.402;18.522;2024-01-11T08:05:25;98587.28;;;-6.12;86.18
81224;BME280;70698;44.402;18.522;2024-01-11T08:07:51;98610.00;;;-5.74;87.25
81224;BME280;70698;44.402;18.522;2024-01-11T08:10:16;98581.78;;;-5.72;86.21
81224;BME280;70698;44.402;18.522;2024-01-11T08:12:42;98596.28;;;-5.18;85.79
81224;BME280;70698;44.402;18.522;2024-01-11T08:15:08;98594.31;;;-4.86;84.26
81224;BME280;70698;44.402;18.522;2024-01-11T08:17:38;98590.66;;;-5.03;81.73
81224;BME280;70698;44.402;18.522;2024-01-11T08:20:05;98588.66;;;-4.95;82.07
81224;BME280;70698;44.402;18.522;2024-01-11T08:22:34;98585.31;;;-4.72;82.21
81224;BME280;70698;44.402;18.522;2024-01-11T08:25:02;98571.31;;;-4.39;80.59
81224;BME280;70698;44.402;18.522;2024-01-11T08:27:30;98583.31;;;-4.64;82.06
81224;BME280;70698;44.402;18.522;2024-01-11T08:29:56;98585.22;;;-4.69;83.25
81224;BME280;70698;44.402;18.522;2024-01-11T08:32:22;98588.34;;;-4.61;84.93
81224;BME280;70698;44.402;18.522;2024-01-11T08:34:48;98580.69;;;-4.63;85.53
81224;BME280;70698;44.402;18.522;2024-01-11T08:37:13;98585.50;;;-4.54;85.72
81224;BME280;70698;44.402;18.522;2024-01-11T08:39:40;98577.59;;;-4.72;86.01
81224;BME280;70698;44.402;18.522;2024-01-11T08:42:05;98585.50;;;-4.30;85.10
81224;BME280;70698;44.402;18.522;2024-01-11T08:44:31;98579.69;;;-3.67;84.61
81224;BME280;70698;44.402;18.522;2024-01-11T08:46:57;98572.56;;;-3.82;83.02
81224;BME280;70698;44.402;18.522;2024-01-11T08:49:24;98577.78;;;-4.07;83.81
81224;BME280;70698;44.402;18.522;2024-01-11T08:51:50;98579.75;;;-4.37;83.60
81224;BME280;70698;44.402;18.522;2024-01-11T08:54:16;98578.41;;;-4.70;87.40
81224;BME280;70698;44.402;18.522;2024-01-11T08:56:42;98580.41;;;-4.79;88.05
81224;BME280;70698;44.402;18.522;2024-01-11T08:59:08;98569.16;;;-4.99;88.32
81224;BME280;70698;44.402;18.522;2024-01-11T09:01:37;98557.63;;;-4.88;89.76
81224;BME280;70698;44.402;18.522;2024-01-11T09:04:03;98577.94;;;-4.33;88.57
81224;BME280;70698;44.402;18.522;2024-01-11T09:06:29;98577.53;;;-4.46;87.35
81224;BME280;70698;44.402;18.522;2024-01-11T09:08:54;98581.44;;;-4.36;87.51
81224;BME280;70698;44.402;18.522;2024-01-11T09:11:20;98584.09;;;-4.62;87.96
81224;BME280;70698;44.402;18.522;2024-01-11T09:13:46;98583.41;;;-4.67;90.49
81224;BME280;70698;44.402;18.522;2024-01-11T09:16:16;98581.44;;;-4.36;88.97
81224;BME280;70698;44.402;18.522;2024-01-11T09:18:43;98578.53;;;-4.27;87.51
81224;BME280;70698;44.402;18.522;2024-01-11T09:21:09;98575.69;;;-4.91;88.04
81224;BME280;70698;44.402;18.522;2024-01-11T09:23:35;98560.25;;;-4.64;89.72
81224;BME280;70698;44.402;18.522;2024-01-11T09:26:00;98576.13;;;-4.55;89.11
81224;BME280;70698;44.402;18.522;2024-01-11T09:28:26;98572.84;;;-4.58;88.63
81224;BME280;70698;44.402;18.522;2024-01-11T09:30:51;98566.38;;;-4.68;89.24
81224;BME280;70698;44.402;18.522;2024-01-11T09:33:17;98562.22;;;-4.03;87.80
81224;BME280;70698;44.402;18.522;2024-01-11T09:35:43;98554.69;;;-4.29;86.51
81224;BME280;70698;44.402;18.522;2024-01-11T09:38:08;98543.16;;;-4.65;88.27
81224;BME280;70698;44.402;18.522;2024-01-11T09:40:34;98548.84;;;-4.57;89.33
81224;BME280;70698;44.402;18.522;2024-01-11T09:43:03;98538.06;;;-4.90;89.63
81224;BME280;70698;44.402;18.522;2024-01-11T09:45:29;98524.38;;;-4.66;90.25
81224;BME280;70698;44.402;18.522;2024-01-11T09:47:55;98531.53;;;-4.74;89.36
81224;BME280;70698;44.402;18.522;2024-01-11T09:50:21;98532.56;;;-4.80;91.06
81224;BME280;70698;44.402;18.522;2024-01-11T09:52:50;98530.16;;;-4.84;91.23
81224;BME280;70698;44.402;18.522;2024-01-11T09:55:16;98528.06;;;-4.50;90.25
81224;BME280;70698;44.402;18.522;2024-01-11T09:57:45;98523.94;;;-4.30;88.75
81224;BME280;70698;44.402;18.522;2024-01-11T10:00:13;98515.16;;;-4.25;87.20
81224;BME280;70698;44.402;18.522;2024-01-11T10:02:41;98498.38;;;-4.12;88.16
81224;BME280;70698;44.402;18.522;2024-01-11T10:05:07;98515.75;;;-4.18;88.31
81224;BME280;70698;44.402;18.522;2024-01-11T10:07:34;98499.72;;;-4.47;87.93
81224;BME280;70698;44.402;18.522;2024-01-11T10:10:00;98499.69;;;-4.45;88.43
81224;BME280;70698;44.402;18.522;2024-01-11T10:12:27;98502.59;;;-4.32;88.91
81224;BME280;70698;44.402;18.522;2024-01-11T10:14:53;98491.19;;;-4.24;87.86
81224;BME280;70698;44.402;18.522;2024-01-11T10:17:19;98484.53;;;-3.86;88.36
81224;BME280;70698;44.402;18.522;2024-01-11T10:19:45;98485.47;;;-3.67;86.05
81224;BME280;70698;44.402;18.522;2024-01-11T10:22:11;98467.94;;;-3.57;83.88
81224;BME280;70698;44.402;18.522;2024-01-11T10:24:42;98485.28;;;-3.62;83.81
81224;BME280;70698;44.402;18.522;2024-01-11T10:27:09;98461.56;;;-3.49;83.48
81224;BME280;70698;44.402;18.522;2024-01-11T10:29:35;98464.47;;;-3.76;84.59
81224;BME280;70698;44.402;18.522;2024-01-11T10:32:03;98461.28;;;-3.83;85.44
81224;BME280;70698;44.402;18.522;2024-01-11T10:34:29;98461.75;;;-3.94;86.42
81224;BME280;70698;44.402;18.522;2024-01-11T10:36:54;98465.81;;;-4.10;87.06
81224;BME280;70698;44.402;18.522;2024-01-11T10:39:24;98454.28;;;-4.21;89.19
81224;BME280;70698;44.402;18.522;2024-01-11T10:41:54;98449.31;;;-4.26;88.80
81224;BME280;70698;44.402;18.522;2024-01-11T10:44:23;98457.88;;;-3.83;86.91
81224;BME280;70698;44.402;18.522;2024-01-11T10:46:52;98442.56;;;-3.85;86.38
81224;BME280;70698;44.402;18.522;2024-01-11T10:49:22;98457.97;;;-3.85;86.78
81224;BME280;70698;44.402;18.522;2024-01-11T10:51:53;98446.03;;;-3.66;87.29
81224;BME280;70698;44.402;18.522;2024-01-11T10:54:20;98453.44;;;-4.00;87.36
81224;BME280;70698;44.402;18.522;2024-01-11T10:56:47;98442.03;;;-4.15;88.13
81224;BME280;70698;44.402;18.522;2024-01-11T10:59:14;98457.09;;;-4.06;88.63
81224;BME280;70698;44.402;18.522;2024-01-11T11:01:42;98448.03;;;-4.14;89.46
81224;BME280;70698;44.402;18.522;2024-01-11T11:04:09;98436.94;;;-4.38;90.32
81224;BME280;70698;44.402;18.522;2024-01-11T11:06:36;98451.03;;;-4.48;90.21
81224;BME280;70698;44.402;18.522;2024-01-11T11:09:03;98437.56;;;-4.31;91.07
81224;BME280;70698;44.402;18.522;2024-01-11T11:11:30;98434.47;;;-4.40;91.22
81224;BME280;70698;44.402;18.522;2024-01-11T11:14:00;98438.41;;;-4.31;91.32
81224;BME280;70698;44.402;18.522;2024-01-11T11:16:26;98424.06;;;-4.37;91.09
81224;BME280;70698;44.402;18.522;2024-01-11T11:18:55;98420.13;;;-4.45;91.31
81224;BME280;70698;44.402;18.522;2024-01-11T11:21:21;98408.19;;;-4.46;91.63
81224;BME280;70698;44.402;18.522;2024-01-11T11:23:47;98403.22;;;-4.07;91.10
81224;BME280;70698;44.402;18.522;2024-01-11T11:26:15;98410.69;;;-4.23;89.39
81224;BME280;70698;44.402;18.522;2024-01-11T11:28:43;98393.66;;;-4.24;90.68
81224;BME280;70698;44.402;18.522;2024-01-11T11:31:10;98401.06;;;-4.18;90.84
81224;BME280;70698;44.402;18.522;2024-01-11T11:33:36;98395.28;;;-4.23;90.80
81224;BME280;70698;44.402;18.522;2024-01-11T11:36:03;98391.84;;;-4.22;90.11
81224;BME280;70698;44.402;18.522;2024-01-11T11:38:30;98386.47;;;-4.16;90.58
81224;BME280;70698;44.402;18.522;2024-01-11T11:40:58;98380.81;;;-4.24;90.51
81224;BME280;70698;44.402;18.522;2024-01-11T11:43:26;98365.34;;;-4.22;89.85
81224;BME280;70698;44.402;18.522;2024-01-11T11:45:52;98372.84;;;-4.18;89.68
81224;BME280;70698;44.402;18.522;2024-01-11T11:51:06;98370.16;;;-4.15;90.89
81224;BME280;70698;44.402;18.522;2024-01-11T11:53:35;98366.72;;;-4.14;90.75
81224;BME280;70698;44.402;18.522;2024-01-11T11:56:01;98371.84;;;-4.14;90.07
81224;BME280;70698;44.402;18.522;2024-01-11T11:58:28;98358.88;;;-4.11;90.64
81224;BME280;70698;44.402;18.522;2024-01-11T12:00:55;98345.16;;;-4.10;90.50
81224;BME280;70698;44.402;18.522;2024-01-11T12:03:28;98347.38;;;-4.02;89.95
81224;BME280;70698;44.402;18.522;2024-01-11T12:05:55;98337.06;;;-4.01;89.67
81224;BME280;70698;44.402;18.522;2024-01-11T12:08:21;98344.16;;;-4.07;90.09
81224;BME280;70698;44.402;18.522;2024-01-11T12:10:47;98327.47;;;-4.17;90.43
81224;BME280;70698;44.402;18.522;2024-01-11T12:13:13;98337.69;;;-4.16;91.33
81224;BME280;70698;44.402;18.522;2024-01-11T12:15:40;98338.06;;;-4.25;90.83
81224;BME280;70698;44.402;18.522;2024-01-11T12:18:06;98318.75;;;-4.33;92.11
81224;BME280;70698;44.402;18.522;2024-01-11T12:20:33;98337.81;;;-4.39;92.15
81224;BME280;70698;44.402;18.522;2024-01-11T12:22:58;98331.22;;;-4.24;92.39
81224;BME280;70698;44.402;18.522;2024-01-11T12:25:25;98323.44;;;-4.23;92.42
81224;BME280;70698;44.402;18.522;2024-01-11T12:27:51;98316.84;;;-4.28;92.22
81224;BME280;70698;44.402;18.522;2024-01-11T12:30:17;98315.22;;;-4.31;91.95
81224;BME280;70698;44.402;18.522;2024-01-11T12:32:43;98306.06;;;-4.16;92.81
81224;BME280;70698;44.402;18.522;2024-01-11T12:35:09;98303.03;;;-4.26;92.17
81224;BME280;70698;44.402;18.522;2024-01-11T12:37:35;98301.50;;;-4.30;92.95
81224;BME280;70698;44.402;18.522;2024-01-11T12:40:01;98304.94;;;-4.31;93.02
81224;BME280;70698;44.402;18.522;2024-01-11T12:42:27;98298.03;;;-4.29;92.80
81224;BME280;70698;44.402;18.522;2024-01-11T12:44:53;98304.06;;;-4.30;93.28